1966 Tropical Cyclone JUDITH:MARTHA (1966055S11099)


IBTrACS version v04r00. Visit IBTrACS website for data access.
Please direct all questions to the IBTrACS Q and A forum

Storm track - Intensity - Wind Radii - Intensity Data - Source Data - All data

Summary Information

Storm ID 1966055S11099
Start Feb 23 16Z
Max Intensity 40 kt (Mar 1 16Z), 992 mb (Mar 1 00Z)
End Mar 8 12Z
ATCF IDs ,SH261966,SH281966
Track status Best track data.

Storm track plot

Map of storm track

Intensity plots

Map of storm track

Radial wind information

No radial wind information for this storm


Position and Intensity Table

BASIN ISO_TIME_________ NATURE LAT LON WMO PRES USA WIND BOM PRES DS824 WIND TD9636 WIND NEUMANN WIND
degrees north degrees east mb kts mb kts kts kts
SI 1966-02-23 16:00:00 NR -11.00 99.00 20
SI 18:00:00 TS -11.01 98.98 20 20 19 20
SI 21:00:00 TS -11.03 98.87 17 17 17 17
SI 1966-02-24 00:00:00 TS -11.12 98.71 15 15 16 15
SI 01:00:00 TS -11.16 98.67 1003 15 1003 15 16 15
SI 03:00:00 TS -11.30 98.51 15 1003 15 15 15
SI 04:00:00 TS -11.40 98.41 1003 15 1003 15 15 15
SI 06:00:00 TS -11.63 98.14 15 1003 15 15 15
SI 07:00:00 TS -11.75 97.98 1003 15 1003 15 16 15
SI 09:00:00 TS -11.99 97.63 17 1003 17 17 17
SI 10:00:00 TS -12.11 97.46 1003 18 1003 18 17 18
SI 12:00:00 TS -12.35 97.16 20 1003 20 18 20
SI 15:00:00 TS -12.68 96.82 20 1003 20 19 20
SI 16:00:00 TS -12.80 96.73 1003 20 1003 20 20 20
SI 18:00:00 TS -13.07 96.73 20 1002 20 21 20
SI 19:00:00 TS -13.20 96.77 1002 20 1002 20 22 20
SI 21:00:00 TS -13.43 96.71 22 1001 22 24 22
SI 22:00:00 TS -13.54 96.70 1001 23 1001 23 25 23
SI 1966-02-25 00:00:00 TS -13.73 96.57 25 1000 25 26 25
SI 01:00:00 TS -13.83 96.50 1000 25 1000 25 27 25
SI 03:00:00 TS -14.04 96.36 27 999 27 29 27
SI 04:00:00 TS -14.13 96.29 999 28 999 28 30 28
SI 06:00:00 TS -14.31 96.16 30 998 30 30 30
SI 09:00:00 TS -14.51 95.96 32 997 32 32 32
SI 10:00:00 TS -14.58 95.89 997 33 997 33 32 33
SI 12:00:00 TS -14.69 95.74 35 997 35 33 35
SI 15:00:00 TS -14.88 95.50 35 997 35 34 35
SI 16:00:00 TS -14.94 95.41 997 35 997 35 35 35
SI 18:00:00 TS -15.10 95.20 35 997 35 32 35
SI 21:00:00 TS -15.36 94.78 30 997 30 28 30
SI 22:00:00 TS -15.44 94.64 998 28 998 28 27 28
SI 1966-02-26 00:00:00 TS -15.60 94.36 25 998 25 24 25
SI 01:00:00 TS -15.67 94.23 999 24 999 24 23 24
SI 03:00:00 TS -15.75 94.00 22 999 22 21 22
SI 04:00:00 TS -15.78 93.89 999 21 999 21 20 21
SI 06:00:00 TS -15.84 93.70 20 999 20 21 20
SI 07:00:00 TS -15.86 93.61 999 21 999 21 22 21
SI 09:00:00 TS -15.88 93.45 25 999 25 24 25
SI 10:00:00 TS -15.88 93.38 999 26 999 26 25 26
SI 12:00:00 TS -15.88 93.24 30 999 30 26 30
SI 15:00:00 TS -15.89 93.01 30 999 30 29 30
SI 16:00:00 TS -15.88 92.93 999 30 999 30 30 30
SI 18:00:00 TS -15.88 92.75 30 999 30 27 30
SI 19:00:00 TS -15.87 92.66 999 28 999 28 26 28
SI 21:00:00 TS -15.88 92.48 25 999 25 23 25
SI 22:00:00 TS -15.88 92.39 999 23 999 23 22 23
SI 1966-02-27 00:00:00 TS -15.87 92.21 20 999 20 19 20
SI 01:00:00 TS -15.87 92.13 999 19 999 19 18 19
SI 03:00:00 TS -15.88 91.97 17 999 17 16 17
SI 04:00:00 TS -15.88 91.90 999 16 999 16 15 16
SI 06:00:00 TS -15.90 91.74 15 999 15 15 15
SI 09:00:00 TS -15.94 91.50 15 999 15 15 15
SI 10:00:00 TS -15.95 91.42 999 15 999 15 15 15
SI 12:00:00 TS -15.99 91.27 15 999 15 15 15
SI 15:00:00 TS -16.08 91.05 15 999 15 15 15
SI 16:00:00 TS -16.11 90.97 999 15 999 15 15 15
SI 18:00:00 TS -16.19 90.81 15 999 15 18 15
SI 19:00:00 TS -16.22 90.72 999 17 999 17 20 17
SI 21:00:00 TS -16.29 90.55 22 999 22 23 22
SI 22:00:00 TS -16.32 90.46 999 24 999 24 25 24
SI 1966-02-28 00:00:00 TS -16.42 90.30 30 999 30 28 30
SI 01:00:00 TS -16.48 90.24 999 30 999 30 30 30
SI 03:00:00 TS -16.65 90.14 32 998 32 33 32
SI 04:00:00 TS -16.75 90.11 998 33 998 33 35 33
SI 06:00:00 TS -16.95 90.06 35 997 35 34 35
SI 07:00:00 TS -17.06 90.06 997 35 997 35 33 35
SI 09:00:00 TS -17.29 90.08 35 996 35 32 35
SI 10:00:00 TS -17.41 90.10 996 35 996 35 32 35
SI 12:00:00 TS -17.65 90.17 35 995 35 31 35
SI 15:00:00 TS -17.99 90.31 32 995 32 30 32
SI 16:00:00 TS -18.11 90.37 995 31 995 31 30 31
SI 18:00:00 TS -18.36 90.49 30 994 30 27 30
SI 19:00:00 TS -18.49 90.56 994 28 994 28 26 28
SI 21:00:00 TS -18.76 90.70 25 993 25 23 25
SI 1966-03-01 00:00:00 TS -19.10 90.92 20 992 20 19 20
SI 01:00:00 TS -19.19 91.00 992 19 992 19 18 19
SI 03:00:00 TS -19.29 91.17 17 992 17 16 17
SI 04:00:00 TS -19.33 91.25 993 16 993 16 15 16
SI 06:00:00 TS -19.38 91.38 15 993 15 19 15
SI 07:00:00 TS -19.39 91.43 993 18 993 18 21 18
SI 09:00:00 TS -19.41 91.48 25 993 25 25 25
SI 10:00:00 TS -19.33 91.50 994 28 994 28 27 28
SI 12:00:00 TS -19.18 91.59 35 994 35 31 35
SI 15:00:00 TS -18.91 91.83 37 994 37 37 37
SI 16:00:00 TS -18.61 92.12 994 38 994 38 40 38
SI 18:00:00 TS -18.49 92.34 40 994 40 36 40
SI 19:00:00 TS -18.44 92.45 995 37 995 37 35 37
SI 21:00:00 TS -18.32 92.66 32 995 32 31 32
SI 22:00:00 TS -18.26 92.75 995 30 995 30 30 30
SI 1966-03-02 00:00:00 TS -18.15 92.90 25 995 25 26 25
SI 01:00:00 TS -18.10 92.96 996 24 996 24 25 24
SI 03:00:00 TS -18.01 92.99 22 996 22 21 22
SI 04:00:00 TS -17.98 92.97 996 21 996 21 20 21
SI 06:00:00 TS -17.91 92.90 20 996 20 22 20
SI 07:00:00 TS -17.89 92.85 996 21 996 21 23 21
SI 09:00:00 TS -17.88 92.72 25 996 25 26 25
SI 10:00:00 TS -17.88 92.64 997 26 997 26 27 26
SI 12:00:00 TS -17.89 92.46 30 997 30 30 30
SI 15:00:00 TS -17.89 92.13 32 997 32 33 32
SI 16:00:00 TS -17.89 92.00 997 33 997 33 35 33
SI 18:00:00 TS -17.87 91.71 35 997 35 32 35
SI 19:00:00 TS -17.86 91.58 997 33 997 33 31 33
SI 21:00:00 TS -17.85 91.32 30 997 30 28 30
SI 22:00:00 TS -17.84 91.18 998 28 998 28 27 28
SI 1966-03-03 00:00:00 TS -17.83 90.84 25 998 25 24 25
SI 01:00:00 TS -17.83 90.62 998 24 998 24 23 24
SI 03:00:00 TS -17.86 90.02 22 998 22 21 22
SI 04:00:00 TS -17.88 89.70 998 21 998 21 20 21
SI 06:00:00 TS -17.94 89.04 20 998 20 22 20
SI 07:00:00 TS -17.98 88.72 998 21 998 21 23 21
SI 09:00:00 TS -18.07 88.03 25 25 26 25
SI 12:00:00 TS -18.25 86.98 30 30 30 30
SI 15:00:00 TS -18.43 85.96 32 32 33 32
SI 16:00:00 TS -18.49 85.62 33 33 35 33
SI 18:00:00 TS -18.62 84.94 35 35 33 35
SI 21:00:00 TS -18.81 83.90 30 30 30 30
SI 22:00:00 TS -18.88 83.56 1000 28 1000 28 30 28
SI 1966-03-04 00:00:00 TS -19.01 82.92 25 25 28 25
SI 03:00:00 TS -19.32 81.93 25 25 25 25
SI 04:00:00 TS -19.69 81.48 25 25 25 25
SI 06:00:00 TS -20.02 80.95 25 25 25 25
SI 09:00:00 TS -20.33 80.40 27 27 27 27
SI 12:00:00 TS -20.53 79.90 30 30 28 30
SI 15:00:00 TS -20.66 79.39 30 30 29 30
SI 16:00:00 TS -20.70 79.21 1000 30 1000 30 30 30
SI 18:00:00 TS -20.80 78.84 30 1000 30 29 30
SI 21:00:00 TS -20.97 78.25 27 1000 27 27 27
SI 22:00:00 TS -21.03 78.05 26 1000 26 27 26
SI 1966-03-05 00:00:00 TS -21.13 77.66 25 999 25 26 25
SI 03:00:00 TS -21.25 77.08 25 999 25 25 25
SI 04:00:00 TS -21.29 76.88 25 999 25 25 25
SI 06:00:00 TS -21.32 76.53 25 999 25 26 25
SI 07:00:00 TS -21.32 76.36 26 999 26 27 26
SI 09:00:00 TS -21.30 76.01 30 998 30 29 30
SI 12:00:00 TS -21.26 75.49 35 998 35 31 35
SI 15:00:00 TS -21.24 74.94 35 998 35 34 35
SI 16:00:00 TS -21.23 74.74 35 998 35 35 35
SI 18:00:00 TS -21.23 74.33 35 997 35 33 35
SI 19:00:00 TS -21.24 74.11 34 997 34 32 34
SI 21:00:00 TS -21.26 73.66 32 996 32 30 32
SI 22:00:00 TS -21.28 73.44 31 996 31 30 31
SI 1966-03-06 00:00:00 TS -21.31 72.98 30 996 30 28 30
SI 03:00:00 TS -21.33 72.53 27 996 27 25 27
SI 04:00:00 TS -21.34 72.58 26 996 26 25 26
SI 06:00:00 TS -21.38 72.48 25 996 25 25 25
SI 07:00:00 TS -21.42 72.68 25 997 25 25 25
SI 09:00:00 TS -21.46 72.32 25 997 25 25 25
SI 12:00:00 TS -21.52 71.81 25 997 25 25 25
SI 15:00:00 TS -21.59 71.29 25 997 25 25 25
SI 16:00:00 TS -21.61 71.10 25 997 25 25 25
SI 18:00:00 TS -21.68 70.69 25 997 25 23 25
SI 19:00:00 TS -21.71 70.45 24 997 24 22 24
SI 21:00:00 TS -21.78 69.96 22 997 22 20 22
SI 22:00:00 TS -21.82 69.71 21 998 21 20 21
SI 1966-03-07 00:00:00 TS -21.93 69.23 20 998 20 18 20
SI 01:00:00 TS -22.00 69.01 19 998 19 17 19
SI 03:00:00 TS -22.16 68.58 17 998 17 15 17
SI 04:00:00 TS -22.25 68.38 16 998 16 15 16
SI 06:00:00 TS -22.43 68.00 15 998 15 15 15
SI 07:00:00 TS -22.51 67.83 15 999 15 16 15
SI 09:00:00 TS -22.67 67.51 15 999 15 17 15
SI 12:00:00 TS -22.93 67.09 15 999 15 18 15
SI 15:00:00 TS -23.54 66.32 999 19
SI 16:00:00 TS -23.99 66.08 1000 20
SI 18:00:00 TS -24.72 66.12 1000
SI 19:00:00 TS -25.13 66.23 1001
SI 21:00:00 TS -25.66 66.53 1001
SI 22:00:00 TS -26.04 66.81 1002
SI 1966-03-08 00:00:00 TS -26.68 67.45 1002
SI 01:00:00 TS -27.01 67.89 1003
SI 03:00:00 TS -27.47 68.58
SI 06:00:00 TS -28.05 69.25
SI 09:00:00 NR -28.42 68.12
SI 12:00:00 TS -29.80 68.80

Source Information

Agency Information
USA bsh261966.txt::bsh281966.txt
TOKYO
CMA
HKO
NEWDELHI
REUNION WMO-Best-Tracks.txt:Line=6537:judith
BOM IDCKMSTM0S.csv:Line=4409:MARTHA
NADI
WELLINGTON
DS824 s_hem.dat:998:26S
TD9636 cons_worldwide_trop_cyclone_18710101-19891231-006:Line=7439
TD9635
NEUMANN tracks.sh:Storm=166:MARTHA/JUDIT:H:BSH2666
MLC

All available IBTrACS Data

SEASON BASIN SUBBASIN ISO_TIME_________ NATURE LAT LON WMO PRES WMO AGENCY DIST2LAND LANDFALL IFLAG USA AGENCY USA ATCF_ID USA LAT USA LON USA WIND USA SSHS REUNION LAT REUNION LON REUNION TYPE REUNION TNUM BOM LAT BOM LON BOM PRES DS824 LAT DS824 LON DS824 STAGE DS824 WIND TD9636 LAT TD9636 LON TD9636 STAGE TD9636 WIND NEUMANN LAT NEUMANN LON NEUMANN CLASS NEUMANN WIND STORM SPEED STORM DIR
Year degrees north degrees east mb km km degrees north degrees east kts 1 degrees north degrees east 1 degrees north degrees east mb degrees north degrees east kts degrees north degrees east kts degrees north degrees east kts kts degrees
1966 SI WA 1966-02-23 16:00:00 NR -11.00 99.00 828 828 __________O___ -1 -11.00 99.00 1 20 1 0
1966 SI WA 18:00:00 TS -11.01 98.98 828 828 O________OP_O_ jtwc_sh SH261966 -11.00 99.00 20 -1 -11.00 99.00 TC 20 -11.02 98.96 1 19 -11.00 99.00 TC 20 2 255
1966 SI WA 21:00:00 TS -11.03 98.87 837 837 P________PP_P_ SH261966 -11.02 98.86 17 -1 -11.02 98.86 TC 17 -11.07 98.88 1 17 -11.02 98.86 TC 17 3 247
1966 SI WA 1966-02-24 00:00:00 TS -11.12 98.71 861 861 O________OP_O_ jtwc_sh SH261966 -11.10 98.70 15 -1 -11.10 98.70 TC 15 -11.17 98.74 1 16 -11.10 98.70 TC 15 3 237
1966 SI WA 01:00:00 TS -11.16 98.67 1003 bom 867 867 P_____O__PP_P_ SH261966 -11.16 98.64 15 -1 -11.00 99.00 1003 -11.16 98.64 TC 15 -11.21 98.67 1 16 -11.16 98.64 TC 15 5 227
1966 SI WA 03:00:00 TS -11.30 98.51 892 892 P_____P__PP_P_ SH261966 -11.30 98.50 15 -1 -11.25 98.60 1003 -11.30 98.50 TC 15 -11.33 98.51 1 15 -11.30 98.50 TC 15 7 227
1966 SI WA 04:00:00 TS -11.40 98.41 1003 bom 907 907 P_____O__PO_P_ SH261966 -11.40 98.42 15 -1 -11.40 98.40 1003 -11.40 98.42 TC 15 -11.40 98.40 1 15 -11.40 98.42 TC 15 10 229
1966 SI WA 06:00:00 TS -11.63 98.14 947 947 O_____P__OP_O_ jtwc_sh SH261966 -11.60 98.20 15 -1 -11.74 98.00 1003 -11.60 98.20 TC 15 -11.58 98.15 1 15 -11.60 98.20 TC 15 11 230
1966 SI WA 07:00:00 TS -11.75 97.98 1003 bom 962 962 P_____O__PP_P_ SH261966 -11.71 98.05 15 -1 -11.90 97.80 1003 -11.71 98.05 TC 15 -11.68 98.00 1 16 -11.71 98.05 TC 15 12 234
1966 SI WA 09:00:00 TS -11.99 97.63 1017 1017 P_____P__PP_P_ SH261966 -11.94 97.71 17 -1 -12.18 97.38 1003 -11.94 97.71 TC 17 -11.90 97.69 1 17 -11.94 97.71 TC 17 13 234
1966 SI WA 10:00:00 TS -12.11 97.46 1003 bom 1032 1032 P_____O__PP_P_ SH261966 -12.06 97.53 18 -1 -12.30 97.20 1003 -12.06 97.53 TC 18 -12.03 97.54 1 17 -12.06 97.53 TC 18 12 232
1966 SI WA 12:00:00 TS -12.35 97.16 1072 1087 O_____P__OP_O_ jtwc_sh SH261966 -12.30 97.20 20 -1 -12.48 96.94 1003 -12.30 97.20 TC 20 -12.28 97.22 1 18 -12.30 97.20 TC 20 10 228
1966 SI WA 15:00:00 TS -12.68 96.82 1133 1133 P_____P__PP_P_ SH261966 -12.65 96.84 20 -1 -12.70 96.74 1003 -12.65 96.84 TC 20 -12.67 96.81 1 19 -12.65 96.84 TC 20 9 223
1966 SI WA 16:00:00 TS -12.80 96.73 1003 bom 1148 1148 P_____O__PO_P_ SH261966 -12.77 96.75 20 -1 -12.80 96.70 1003 -12.77 96.75 TC 20 -12.80 96.70 1 20 -12.77 96.75 TC 20 8 191
1966 SI WA 18:00:00 TS -13.07 96.73 1168 1159 O_____P__OP_O_ jtwc_sh SH261966 -13.00 96.60 20 -1 -13.07 96.63 1002 -13.00 96.60 TC 20 -13.05 96.57 1 21 -13.00 96.60 TC 20 8 174
1966 SI WA 19:00:00 TS -13.20 96.77 1002 bom 1166 1166 P_____O__PP_P_ SH261966 -13.12 96.54 20 -1 -13.20 96.60 1002 -13.12 96.54 TC 20 -13.17 96.52 1 22 -13.12 96.54 TC 20 7 184
1966 SI WA 21:00:00 TS -13.43 96.71 1188 1188 P_____P__PP_P_ SH261966 -13.35 96.47 22 -1 -13.41 96.53 1001 -13.35 96.47 TC 22 -13.42 96.45 1 24 -13.35 96.47 TC 22 7 192
1966 SI WA 22:00:00 TS -13.54 96.70 1001 bom 1195 1195 P_____O__PP_P_ SH261966 -13.47 96.44 23 -1 -13.50 96.50 1001 -13.47 96.44 TC 23 -13.54 96.42 1 25 -13.47 96.44 TC 23 7 205
1966 SI WA 1966-02-25 00:00:00 TS -13.73 96.57 1217 1224 O_____P__OP_O_ jtwc_sh SH261966 -13.70 96.40 25 -1 -13.69 96.43 1000 -13.70 96.40 TC 25 -13.77 96.39 1 26 -13.70 96.40 TC 25 7 213
1966 SI WA 01:00:00 TS -13.83 96.50 1000 bom 1233 1233 P_____O__PP_P_ SH261966 -13.82 96.37 25 -1 -13.80 96.40 1000 -13.82 96.37 TC 25 -13.89 96.37 1 27 -13.82 96.37 TC 25 7 214
1966 SI WA 03:00:00 TS -14.04 96.36 1255 1271 P_____P__PP_P_ SH261966 -14.07 96.31 27 -1 -14.07 96.33 999 -14.07 96.31 TC 27 -14.10 96.33 1 29 -14.07 96.31 TC 27 7 214
1966 SI WA 04:00:00 TS -14.13 96.29 999 bom 1271 1271 P_____O__PO_P_ SH261966 -14.19 96.27 28 -1 -14.20 96.30 999 -14.19 96.27 TC 28 -14.20 96.30 1 30 -14.19 96.27 TC 28 7 216
1966 SI WA 06:00:00 TS -14.31 96.16 1293 1301 O_____P__OP_O_ jtwc_sh SH261966 -14.40 96.20 30 -1 -14.44 96.25 998 -14.40 96.20 TC 30 -14.37 96.23 1 30 -14.40 96.20 TC 30 6 220
1966 SI WA 09:00:00 TS -14.51 95.96 1324 1332 P_____P__PP_P_ SH261966 -14.61 96.07 32 -1 -14.72 96.15 997 -14.61 96.07 TC 32 -14.60 96.10 1 32 -14.61 96.07 TC 32 6 224
1966 SI WA 10:00:00 TS -14.58 95.89 997 bom 1339 1339 P_____O__PP_P_ SH261966 -14.68 96.02 33 -1 -14.80 96.10 997 -14.68 96.02 TC 33 -14.67 96.05 1 32 -14.68 96.02 TC 33 6 230
1966 SI WA 12:00:00 TS -14.69 95.74 1363 1363 O_____P__OP_O_ jtwc_sh SH261966 -14.80 95.90 35 0 -14.90 95.98 997 -14.80 95.90 TC 35 -14.81 95.93 1 33 -14.80 95.90 TC 35 6 231
1966 SI WA 15:00:00 TS -14.88 95.50 1394 1394 P_____P__PP_P_ SH261966 -15.03 95.70 35 0 -15.03 95.72 997 -15.03 95.70 TC 35 -15.02 95.70 1 34 -15.03 95.70 TC 35 6 231
1966 SI WA 16:00:00 TS -14.94 95.41 997 bom 1402 1402 P_____O__PO_P_ SH261966 -15.12 95.62 35 0 -15.10 95.60 997 -15.12 95.62 TC 35 -15.10 95.60 2 35 -15.12 95.62 TC 35 7 233
1966 SI WA 18:00:00 TS -15.10 95.20 1433 1433 O_____P__OP_O_ jtwc_sh SH261966 -15.30 95.40 35 0 -15.33 95.29 997 -15.30 95.40 TC 35 -15.30 95.35 2 32 -15.30 95.40 TC 35 9 236
1966 SI WA 21:00:00 TS -15.36 94.78 1488 1488 P_____P__PP_P_ SH261966 -15.62 94.92 30 -1 -15.76 94.76 997 -15.62 94.92 TC 30 -15.62 94.92 2 28 -15.62 94.92 TC 30 10 237
1966 SI WA 22:00:00 TS -15.44 94.64 998 bom 1504 1504 P_____O__PP_P_ SH261966 -15.72 94.74 28 -1 -15.90 94.60 998 -15.72 94.74 TC 28 -15.73 94.77 2 27 -15.72 94.74 TC 28 10 239
1966 SI WA 1966-02-26 00:00:00 TS -15.60 94.36 1535 1543 O_____P__OP_O_ jtwc_sh SH261966 -15.90 94.40 25 -1 -16.21 94.32 998 -15.90 94.40 TC 25 -15.92 94.46 2 24 -15.90 94.40 TC 25 9 240
1966 SI WA 01:00:00 TS -15.67 94.23 999 bom 1559 1559 P_____O__PP_P_ SH261966 -15.97 94.26 24 -1 -16.30 94.20 999 -15.97 94.26 TC 24 -16.00 94.31 2 23 -15.97 94.26 TC 24 8 246
1966 SI WA 03:00:00 TS -15.75 94.00 1582 1582 P_____P__PP_P_ SH261966 -16.09 94.00 22 -1 -16.25 93.99 999 -16.09 94.00 TC 22 -16.15 94.03 2 21 -16.09 94.00 TC 22 7 250
1966 SI WA 04:00:00 TS -15.78 93.89 999 bom 1591 1591 P_____O__PO_P_ SH261966 -16.14 93.89 21 -1 -16.20 93.90 999 -16.14 93.89 TC 21 -16.20 93.90 1 20 -16.14 93.89 TC 21 6 253
1966 SI WA 06:00:00 TS -15.84 93.70 1608 1608 O_____P__OP_O_ jtwc_sh SH261966 -16.20 93.70 20 -1 -16.20 93.70 999 -16.20 93.70 TC 20 -16.25 93.71 1 21 -16.20 93.70 TC 20 6 255
1966 SI WA 07:00:00 TS -15.86 93.61 999 bom 1623 1623 P_____O__PP_P_ SH261966 -16.22 93.62 21 -1 -16.20 93.60 999 -16.22 93.62 TC 21 -16.26 93.63 1 22 -16.22 93.62 TC 21 5 261
1966 SI WA 09:00:00 TS -15.88 93.45 1632 1640 P_____P__PP_P_ SH261966 -16.23 93.48 25 -1 -16.13 93.39 999 -16.23 93.48 TC 25 -16.26 93.48 1 24 -16.23 93.48 TC 25 5 265
1966 SI WA 10:00:00 TS -15.88 93.38 999 bom 1640 1640 P_____O__PP_P_ SH261966 -16.22 93.42 26 -1 -16.10 93.30 999 -16.22 93.42 TC 26 -16.25 93.41 1 25 -16.22 93.42 TC 26 4 268
1966 SI WA 12:00:00 TS -15.88 93.24 1657 1657 O_____P__OP_O_ jtwc_sh SH261966 -16.20 93.30 30 -1 -16.09 93.20 999 -16.20 93.30 TC 30 -16.21 93.28 1 26 -16.20 93.30 TC 30 4 269
1966 SI WA 15:00:00 TS -15.89 93.01 1673 1673 P_____P__PP_P_ SH261966 -16.16 93.06 30 -1 -16.11 93.08 999 -16.16 93.06 TC 30 -16.13 93.08 1 29 -16.16 93.06 TC 30 4 269
1966 SI WA 16:00:00 TS -15.88 92.93 999 bom 1680 1680 P_____O__PO_P_ SH261966 -16.14 92.98 30 -1 -16.10 93.00 999 -16.14 92.98 TC 30 -16.10 93.00 1 30 -16.14 92.98 TC 30 5 272
1966 SI WA 18:00:00 TS -15.88 92.75 1695 1695 O_____P__OP_O_ jtwc_sh SH261966 -16.10 92.80 30 -1 -16.03 92.73 999 -16.10 92.80 TC 30 -16.06 92.81 1 27 -16.10 92.80 TC 30 5 272
1966 SI WA 19:00:00 TS -15.87 92.66 999 bom 1695 1695 P_____O__PP_P_ SH261966 -16.08 92.70 28 -1 -16.00 92.60 999 -16.08 92.70 TC 28 -16.05 92.71 1 26 -16.08 92.70 TC 28 5 270
1966 SI WA 21:00:00 TS -15.88 92.48 1709 1709 P_____P__PP_P_ SH261966 -16.05 92.50 25 -1 -16.00 92.39 999 -16.05 92.50 TC 25 -16.01 92.50 1 23 -16.05 92.50 TC 25 5 269
1966 SI WA 22:00:00 TS -15.88 92.39 999 bom 1716 1716 P_____O__PP_P_ SH261966 -16.03 92.40 23 -1 -16.00 92.30 999 -16.03 92.40 TC 23 -15.99 92.39 1 22 -16.03 92.40 TC 23 5 271
1966 SI WA 1966-02-27 00:00:00 TS -15.87 92.21 1731 1731 O_____P__OP_O_ jtwc_sh SH261966 -16.00 92.20 20 -1 -15.93 92.09 999 -16.00 92.20 TC 20 -15.95 92.18 1 19 -16.00 92.20 TC 20 5 271
1966 SI WA 01:00:00 TS -15.87 92.13 999 bom 1738 1738 P_____O__PP_P_ SH261966 -15.98 92.11 19 -1 -15.90 92.00 999 -15.98 92.11 TC 19 -15.93 92.08 1 18 -15.98 92.11 TC 19 5 269
1966 SI WA 03:00:00 TS -15.88 91.97 1745 1745 P_____P__PP_P_ SH261966 -15.94 91.93 17 -1 -15.89 91.87 999 -15.94 91.93 TC 17 -15.91 91.89 1 16 -15.94 91.93 TC 17 4 267
1966 SI WA 04:00:00 TS -15.88 91.90 999 bom 1752 1752 P_____O__PO_P_ SH261966 -15.93 91.85 16 -1 -15.90 91.80 999 -15.93 91.85 TC 16 -15.90 91.80 1 15 -15.93 91.85 TC 16 4 264
1966 SI WA 06:00:00 TS -15.90 91.74 1766 1766 O_____P__OP_O_ jtwc_sh SH261966 -15.90 91.70 15 -1 -15.93 91.60 999 -15.90 91.70 TC 15 -15.88 91.64 1 15 -15.90 91.70 TC 15 5 262
1966 SI WA 09:00:00 TS -15.94 91.50 1781 1781 P_____P__PP_P_ SH261966 -15.88 91.49 15 -1 -15.99 91.29 999 -15.88 91.49 TC 15 -15.88 91.43 1 15 -15.88 91.49 TC 15 5 261
1966 SI WA 10:00:00 TS -15.95 91.42 999 bom 1796 1796 P_____O__PP_P_ SH261966 -15.88 91.43 15 -1 -16.00 91.20 999 -15.88 91.43 TC 15 -15.88 91.36 1 15 -15.88 91.43 TC 15 5 256
1966 SI WA 12:00:00 TS -15.99 91.27 1803 1803 O_____P__OP_O_ jtwc_sh SH261966 -15.90 91.30 15 -1 -15.99 91.13 999 -15.90 91.30 TC 15 -15.90 91.24 1 15 -15.90 91.30 TC 15 4 251
1966 SI WA 15:00:00 TS -16.08 91.05 1830 1830 P_____P__PP_P_ SH261966 -15.98 91.10 15 -1 -15.99 91.06 999 -15.98 91.10 TC 15 -15.97 91.06 1 15 -15.98 91.10 TC 15 5 247
1966 SI WA 16:00:00 TS -16.11 90.97 999 bom 1830 1830 P_____O__PO_P_ SH261966 -16.01 91.03 15 -1 -16.00 91.00 999 -16.01 91.03 TC 15 -16.00 91.00 1 15 -16.01 91.03 TC 15 5 244
1966 SI WA 18:00:00 TS -16.19 90.81 1850 1850 O_____P__OP_O_ jtwc_sh SH261966 -16.10 90.90 15 -1 -16.07 90.80 999 -16.10 90.90 TC 15 -16.07 90.85 1 18 -16.10 90.90 TC 15 5 246
1966 SI WA 19:00:00 TS -16.22 90.72 999 bom 1856 1856 P_____O__PP_P_ SH261966 -16.14 90.83 17 -1 -16.10 90.70 999 -16.14 90.83 TC 17 -16.11 90.78 1 20 -16.14 90.83 TC 17 5 250
1966 SI WA 21:00:00 TS -16.29 90.55 1876 1876 P_____P__PP_P_ SH261966 -16.23 90.69 22 -1 -16.10 90.57 999 -16.23 90.69 TC 22 -16.20 90.64 1 23 -16.23 90.69 TC 22 5 248
1966 SI WA 22:00:00 TS -16.32 90.46 999 bom 1876 1876 P_____O__PP_P_ SH261966 -16.28 90.62 24 -1 -16.10 90.50 999 -16.28 90.62 TC 24 -16.26 90.58 1 25 -16.28 90.62 TC 24 5 240
1966 SI WA 1966-02-28 00:00:00 TS -16.42 90.30 1897 1897 O_____P__OP_O_ jtwc_sh SH261966 -16.40 90.50 30 -1 -16.13 90.27 999 -16.40 90.50 TC 30 -16.39 90.46 1 28 -16.40 90.50 TC 30 5 234
1966 SI WA 01:00:00 TS -16.48 90.24 999 bom 1912 1912 P_____O__PP_P_ SH261966 -16.47 90.45 30 -1 -16.20 90.20 999 -16.47 90.45 TC 30 -16.46 90.41 1 30 -16.47 90.45 TC 30 6 214
1966 SI WA 03:00:00 TS -16.65 90.14 1936 1936 P_____P__PP_P_ SH261966 -16.62 90.36 32 -1 -16.52 90.25 998 -16.62 90.36 TC 32 -16.61 90.33 1 33 -16.62 90.36 TC 32 6 205
1966 SI WA 04:00:00 TS -16.75 90.11 998 bom 1936 1936 P_____O__PO_P_ SH261966 -16.71 90.33 33 -1 -16.70 90.30 998 -16.71 90.33 TC 33 -16.70 90.30 2 35 -16.71 90.33 TC 33 6 193
1966 SI WA 06:00:00 TS -16.95 90.06 1965 1965 O_____P__OP_O_ jtwc_sh SH261966 -16.90 90.30 35 0 -16.97 90.30 997 -16.90 90.30 TC 35 -16.88 90.27 2 34 -16.90 90.30 TC 35 6 189
1966 SI WA 07:00:00 TS -17.06 90.06 997 bom 1975 1975 P_____O__PP_P_ SH261966 -17.01 90.30 35 0 -17.10 90.30 997 -17.01 90.30 TC 35 -16.99 90.27 2 33 -17.01 90.30 TC 35 7 0
1966 SI WA 09:00:00 TS -17.29 90.08 1994 1994 P_____P__PP_P_ SH261966 -17.23 90.32 35 0 -17.37 90.36 996 -17.23 90.32 TC 35 -17.20 90.29 2 32 -17.23 90.32 TC 35 7 174
1966 SI WA 10:00:00 TS -17.41 90.10 996 bom 2004 2004 P_____O__PP_P_ SH261966 -17.36 90.34 35 0 -17.50 90.40 996 -17.36 90.34 TC 35 -17.31 90.31 2 32 -17.36 90.34 TC 35 7 166
1966 SI WA 12:00:00 TS -17.65 90.17 2014 2023 O_____P__OP_O_ jtwc_sh SH261966 -17.60 90.40 35 0 -17.68 90.44 995 -17.60 90.40 TC 35 -17.54 90.36 2 31 -17.60 90.40 TC 35 7 161
1966 SI WA 15:00:00 TS -17.99 90.31 2041 2041 P_____P__PP_P_ SH261966 -17.94 90.49 32 -1 -17.90 90.48 995 -17.94 90.49 TC 32 -17.89 90.46 2 30 -17.94 90.49 TC 32 8 158
1966 SI WA 16:00:00 TS -18.11 90.37 995 bom 2041 2041 P_____O__PO_P_ SH261966 -18.06 90.53 31 -1 -18.00 90.50 995 -18.06 90.53 TC 31 -18.00 90.50 1 30 -18.06 90.53 TC 31 8 155
1966 SI WA 18:00:00 TS -18.36 90.49 2055 2055 O_____P__OP_O_ jtwc_sh SH261966 -18.30 90.60 30 -1 -18.26 90.57 994 -18.30 90.60 TC 30 -18.25 90.55 1 27 -18.30 90.60 TC 30 8 154
1966 SI WA 19:00:00 TS -18.49 90.56 994 bom 2053 2053 P_____O__PP_P_ SH261966 -18.45 90.63 28 -1 -18.40 90.60 994 -18.45 90.63 TC 28 -18.38 90.58 1 26 -18.45 90.63 TC 28 9 154
1966 SI WA 21:00:00 TS -18.76 90.70 2066 2063 P_____P__PP_P_ SH261966 -18.75 90.68 25 -1 -18.76 90.61 993 -18.75 90.68 TC 25 -18.63 90.64 1 23 -18.75 90.68 TC 25 9 151
1966 SI WA 1966-03-01 00:00:00 TS -19.10 90.92 2071 2063 O_____P__OP_O_ jtwc_sh SH261966 -19.10 90.80 20 -1 -19.23 90.65 992 -19.10 90.80 TC 20 -18.95 90.77 1 19 -19.10 90.80 TC 20 8 146
1966 SI WA 01:00:00 TS -19.19 91.00 992 bom 2070 2061 P_____O__PP_P_ SH261966 -19.15 90.85 19 -1 -19.30 90.70 992 -19.15 90.85 TC 19 -19.03 90.82 1 18 -19.15 90.85 TC 19 6 129
1966 SI WA 03:00:00 TS -19.29 91.17 2061 2061 P_____P__PP_P_ SH261966 -19.18 90.98 17 -1 -19.26 90.88 992 -19.18 90.98 TC 17 -19.16 90.93 1 16 -19.18 90.98 TC 17 5 122
1966 SI WA 04:00:00 TS -19.33 91.25 993 bom 2061 2053 P_____O__PO_P_ SH261966 -19.17 91.05 16 -1 -19.20 91.00 993 -19.17 91.05 TC 16 -19.20 91.00 1 15 -19.17 91.05 TC 16 4 112
1966 SI WA 06:00:00 TS -19.38 91.38 2053 2053 O_____P__OP_O_ jtwc_sh SH261966 -19.10 91.20 15 -1 -19.07 91.27 993 -19.10 91.20 TC 15 -19.20 91.15 1 19 -19.10 91.20 TC 15 4 110
1966 SI WA 07:00:00 TS -19.39 91.43 993 bom 2053 2045 P_____O__PP_P_ SH261966 -19.07 91.28 18 -1 -19.00 91.40 993 -19.07 91.28 TC 18 -19.18 91.24 1 21 -19.07 91.28 TC 18 2 112
1966 SI WA 09:00:00 TS -19.41 91.48 2045 2037 P_____P__PP_P_ SH261966 -18.97 91.44 25 -1 -18.86 91.61 993 -18.97 91.44 TC 25 -19.09 91.42 1 25 -18.97 91.44 TC 25 2 51
1966 SI WA 10:00:00 TS -19.33 91.50 994 bom 2037 2022 P_____O__PP_P_ SH261966 -18.92 91.52 28 -1 -18.80 91.70 994 -18.92 91.52 TC 28 -19.04 91.52 1 27 -18.92 91.52 TC 28 5 24
1966 SI WA 12:00:00 TS -19.18 91.59 2022 1984 O_____P__OP_O_ jtwc_sh SH261966 -18.80 91.70 35 0 -18.73 91.81 994 -18.80 91.70 TC 35 -18.90 91.72 1 31 -18.80 91.70 TC 35 6 37
1966 SI WA 15:00:00 TS -18.91 91.83 1984 1946 P_____P__PP_P_ SH261966 -18.65 92.01 37 0 -18.64 91.99 994 -18.65 92.01 TC 37 -18.67 92.01 1 37 -18.65 92.01 TC 37 11 41
1966 SI WA 16:00:00 TS -18.61 92.12 994 bom 1938 1915 P_____O__PO_P_ SH261966 -18.60 92.11 38 0 -18.60 92.10 994 -18.60 92.11 TC 38 -18.60 92.10 2 40 -18.60 92.11 TC 38 13 49
1966 SI WA 18:00:00 TS -18.49 92.34 1915 1900 O_____P__OP_O_ jtwc_sh SH261966 -18.50 92.30 40 0 -18.47 92.43 994 -18.50 92.30 TC 40 -18.49 92.31 2 36 -18.50 92.30 TC 40 7 62
1966 SI WA 19:00:00 TS -18.44 92.45 995 bom 1892 1869 P_____O__PP_P_ SH261966 -18.45 92.38 37 0 -18.40 92.60 995 -18.45 92.38 TC 37 -18.43 92.42 2 35 -18.45 92.38 TC 37 7 60
1966 SI WA 21:00:00 TS -18.32 92.66 1869 1869 P_____P__PP_P_ SH261966 -18.35 92.52 32 -1 -18.27 92.88 995 -18.35 92.52 TC 32 -18.32 92.62 2 31 -18.35 92.52 TC 32 7 59
1966 SI WA 22:00:00 TS -18.26 92.75 995 bom 1869 1845 P_____O__PP_P_ SH261966 -18.30 92.59 30 -1 -18.20 93.00 995 -18.30 92.59 TC 30 -18.26 92.71 2 30 -18.30 92.59 TC 30 6 54
1966 SI WA 1966-03-02 00:00:00 TS -18.15 92.90 1845 1838 O_____P__OP_O_ jtwc_sh SH261966 -18.20 92.70 25 -1 -18.05 93.25 995 -18.20 92.70 TC 25 -18.16 92.86 2 26 -18.20 92.70 TC 25 5 50
1966 SI WA 01:00:00 TS -18.10 92.96 996 bom 1830 1823 P_____O__PP_P_ SH261966 -18.14 92.77 24 -1 -18.00 93.30 996 -18.14 92.77 TC 24 -18.11 92.92 2 25 -18.14 92.77 TC 24 3 30
1966 SI WA 03:00:00 TS -18.01 92.99 1823 1823 P_____P__PP_P_ SH261966 -18.03 92.91 22 -1 -18.00 93.14 996 -18.03 92.91 TC 22 -18.03 92.99 2 21 -18.03 92.91 TC 22 2 0
1966 SI WA 04:00:00 TS -17.98 92.97 996 bom 1823 1823 P_____O__PO_P_ SH261966 -17.98 92.96 21 -1 -18.00 93.00 996 -17.98 92.96 TC 21 -18.00 93.00 1 20 -17.98 92.96 TC 21 3 320
1966 SI WA 06:00:00 TS -17.91 92.90 1823 1823 O_____P__OP_O_ jtwc_sh SH261966 -17.90 93.00 20 -1 -17.93 92.73 996 -17.90 93.00 TC 20 -17.95 92.98 1 22 -17.90 93.00 TC 20 3 307
1966 SI WA 07:00:00 TS -17.89 92.85 996 bom 1823 1823 P_____O__PP_P_ SH261966 -17.88 92.99 21 -1 -17.90 92.60 996 -17.88 92.99 TC 21 -17.93 92.94 1 23 -17.88 92.99 TC 21 3 281
1966 SI WA 09:00:00 TS -17.88 92.72 1839 1839 P_____P__PP_P_ SH261966 -17.88 92.89 25 -1 -17.89 92.39 996 -17.88 92.89 TC 25 -17.91 92.82 1 26 -17.88 92.89 TC 25 4 273
1966 SI WA 10:00:00 TS -17.88 92.64 997 bom 1847 1847 P_____O__PP_P_ SH261966 -17.88 92.81 26 -1 -17.90 92.30 997 -17.88 92.81 TC 26 -17.90 92.74 1 27 -17.88 92.81 TC 26 5 268
1966 SI WA 12:00:00 TS -17.89 92.46 1855 1863 O_____P__OP_O_ jtwc_sh SH261966 -17.90 92.60 30 -1 -17.91 92.20 997 -17.90 92.60 TC 30 -17.90 92.54 1 30 -17.90 92.60 TC 30 6 269
1966 SI WA 15:00:00 TS -17.89 92.13 1887 1887 P_____P__PP_P_ SH261966 -17.90 92.19 32 -1 -17.91 92.08 997 -17.90 92.19 TC 32 -17.90 92.15 1 33 -17.90 92.19 TC 32 7 271
1966 SI WA 16:00:00 TS -17.89 92.00 997 bom 1896 1896 P_____O__PO_P_ SH261966 -17.90 92.04 33 -1 -17.90 92.00 997 -17.90 92.04 TC 33 -17.90 92.00 2 35 -17.90 92.04 TC 33 8 273
1966 SI WA 18:00:00 TS -17.87 91.71 1920 1920 O_____P__OP_O_ jtwc_sh SH261966 -17.90 91.70 35 0 -17.83 91.73 997 -17.90 91.70 TC 35 -17.88 91.73 2 32 -17.90 91.70 TC 35 8 274
1966 SI WA 19:00:00 TS -17.86 91.58 997 bom 1929 1929 P_____O__PP_P_ SH261966 -17.90 91.55 33 -1 -17.80 91.60 997 -17.90 91.55 TC 33 -17.87 91.58 2 31 -17.90 91.55 TC 33 7 274
1966 SI WA 21:00:00 TS -17.85 91.32 1947 1947 P_____P__PP_P_ SH261966 -17.90 91.25 30 -1 -17.80 91.39 997 -17.90 91.25 TC 30 -17.85 91.25 2 28 -17.90 91.25 TC 30 8 272
1966 SI WA 22:00:00 TS -17.84 91.18 998 bom 1955 1955 P_____O__PP_P_ SH261966 -17.90 91.09 28 -1 -17.80 91.30 998 -17.90 91.09 TC 28 -17.85 91.07 2 27 -17.90 91.09 TC 28 9 272
1966 SI WA 1966-03-03 00:00:00 TS -17.83 90.84 1988 1988 O_____P__OP_O_ jtwc_sh SH261966 -17.90 90.70 25 -1 -17.71 91.18 998 -17.90 90.70 TC 25 -17.85 90.66 2 24 -17.90 90.70 TC 25 11 272
1966 SI WA 01:00:00 TS -17.83 90.62 998 bom 2003 2003 P_____O__PP_P_ SH261966 -17.89 90.48 24 -1 -17.70 91.00 998 -17.89 90.48 TC 24 -17.85 90.44 2 23 -17.89 90.48 TC 24 16 268
1966 SI WA 03:00:00 TS -17.86 90.02 2053 2053 P_____P__PP_P_ SH261966 -17.88 89.97 22 -1 -17.82 90.19 998 -17.88 89.97 TC 22 -17.88 89.96 2 21 -17.88 89.97 TC 22 18 266
1966 SI MM 04:00:00 TS -17.88 89.70 998 bom 2074 2074 P_____O__PO_P_ SH261966 -17.88 89.70 21 -1 -17.90 89.70 998 -17.88 89.70 TC 21 -17.90 89.70 1 20 -17.88 89.70 TC 21 19 265
1966 SI MM 06:00:00 TS -17.94 89.04 2112 2112 O_____P__OP_O_ jtwc_sh SH261966 -17.90 89.10 20 -1 -18.03 88.83 998 -17.90 89.10 TC 20 -17.96 89.15 1 22 -17.90 89.10 TC 20 19 264
1966 SI MM 07:00:00 TS -17.98 88.72 998 bom 2138 2138 P_____O__PP_P_ SH261966 -17.93 88.79 21 -1 -18.10 88.40 998 -17.93 88.79 TC 21 -18.00 88.85 1 23 -17.93 88.79 TC 21 19 262
1966 SI MM 09:00:00 TS -18.07 88.03 2188 2188 P_____P__PP_P_ SH261966 -18.02 88.13 25 -1 -18.22 87.57 -18.02 88.13 TC 25 -18.09 88.22 1 26 -18.02 88.13 TC 25 20 261
1966 SI MM 12:00:00 TS -18.25 86.98 2258 2274 O_____P__OP_O_ jtwc_sh SH261966 -18.20 87.10 30 -1 -18.39 86.39 -18.20 87.10 TC 30 -18.25 87.20 1 30 -18.20 87.10 TC 30 20 260
1966 SI MM 15:00:00 TS -18.43 85.96 2340 2347 P_____P__PP_P_ SH261966 -18.39 86.11 32 -1 -18.54 85.30 -18.39 86.11 TC 32 -18.44 86.15 1 33 -18.39 86.11 TC 32 20 259
1966 SI MM 16:00:00 TS -18.49 85.62 2376 2376 P_____P__PO_P_ SH261966 -18.46 85.77 33 -1 -18.59 84.97 -18.46 85.77 TC 33 -18.50 85.80 2 35 -18.46 85.77 TC 33 20 259
1966 SI MM 18:00:00 TS -18.62 84.94 2431 2431 O_____P__OP_O_ jtwc_sh SH261966 -18.60 85.10 35 0 -18.69 84.32 -18.60 85.10 TC 35 -18.62 85.06 2 33 -18.60 85.10 TC 35 20 259
1966 SI MM 21:00:00 TS -18.81 83.90 2518 2525 P_____P__PP_P_ SH261966 -18.80 84.03 30 -1 -18.85 83.46 -18.80 84.03 TC 30 -18.82 83.94 2 30 -18.80 84.03 TC 30 20 259
1966 SI MM 22:00:00 TS -18.88 83.56 1000 bom 2548 2548 P_____O__PP_P_ SH261966 -18.87 83.68 28 -1 -18.90 83.20 1000 -18.87 83.68 TC 28 -18.89 83.57 2 30 -18.87 83.68 TC 28 19 258
1966 SI MM 1966-03-04 00:00:00 TS -19.01 82.92 2606 2521 O_____P__OP_O_ jtwc_sh SH261966 -19.00 83.00 25 -1 -19.00 82.74 -19.00 83.00 TC 25 -19.03 82.87 2 28 -19.00 83.00 TC 25 19 254
1966 SI MM 03:00:00 TS -19.32 81.93 2521 2486 P_____P__PP_P_ SH261966 -19.20 81.98 25 -1 -19.17 82.16 -19.20 81.98 TC 25 -19.23 81.96 2 25 -19.20 81.98 TC 25 23 243
1966 SI MM 04:00:00 TS -19.69 81.48 2475 2419 P_____P__PO_P_ SH261966 -19.27 81.68 25 -1 -19.22 81.99 -19.27 81.68 TC 25 -19.30 81.70 1 25 -19.27 81.68 TC 25 23 233
1966 SI MM 06:00:00 TS -20.02 80.95 2419 2354 O_____P__OP_O_ jtwc_sh SH261966 -19.40 81.20 25 -1 -19.34 81.68 -19.40 81.20 TC 25 -19.43 81.33 1 25 -19.40 81.20 TC 25 14 238
1966 SI MM 09:00:00 TS -20.33 80.40 2354 2301 P_____P__PP_P_ SH261966 -19.60 80.88 27 -1 -19.54 81.25 -19.60 80.88 TC 27 -19.62 80.94 1 27 -19.60 80.88 TC 27 11 242
1966 SI MM 12:00:00 TS -20.53 79.90 2301 2248 O____OP__OP_O_ jtwc_sh SH261966 -19.80 80.70 30 -1 -20.00 80.40 2 9.90 -19.76 80.83 -19.80 80.70 TC 30 -19.82 80.64 1 28 -19.80 80.70 TC 30 10 251
1966 SI MM 15:00:00 TS -20.66 79.39 2248 2227 P____PP__PP_P_ SH261966 -19.99 80.32 30 -1 -20.31 79.95 2 -20.01 80.37 -19.99 80.32 TC 30 -20.03 80.33 1 29 -19.99 80.32 TC 30 10 256
1966 SI MM 16:00:00 TS -20.70 79.21 1000 bom 2227 2185 P____PO__PO_P_ SH261966 -20.06 80.16 30 -1 -20.41 79.80 2 -20.10 80.20 1000 -20.06 80.16 TC 30 -20.10 80.20 1 30 -20.06 80.16 TC 30 11 255
1966 SI MM 18:00:00 TS -20.80 78.84 reunion 2185 2132 O____OP__OP_O_ jtwc_sh SH261966 -20.20 79.80 30 -1 -20.60 79.50 99 9.90 -20.31 79.82 1000 -20.20 79.80 TC 30 -20.27 79.81 1 29 -20.20 79.80 TC 30 11 253
1966 SI MM 21:00:00 TS -20.97 78.25 2132 2111 P____PP__PP_P_ SH261966 -20.45 79.12 27 -1 -20.86 79.03 99 -20.62 79.21 1000 -20.45 79.12 TC 27 -20.53 79.15 1 27 -20.45 79.12 TC 27 12 252
1966 SI MM 22:00:00 TS -21.03 78.05 2111 2070 P____PO__PP_P_ SH261966 -20.54 78.87 26 -1 -20.95 78.86 99 -20.70 79.00 1000 -20.54 78.87 TC 26 -20.61 78.92 1 27 -20.54 78.87 TC 26 12 254
1966 SI MM 1966-03-05 00:00:00 TS -21.13 77.66 reunion 2070 2007 O____OP__OP_O_ jtwc_sh SH261966 -20.70 78.40 25 -1 -21.10 78.50 99 9.90 -20.83 78.55 999 -20.70 78.40 TC 25 -20.77 78.46 1 26 -20.70 78.40 TC 25 11 256
1966 SI MM 03:00:00 TS -21.25 77.08 2007 1987 P____PP__PP_P_ SH261966 -20.94 77.81 25 -1 -21.32 77.86 99 -20.94 77.85 999 -20.94 77.81 TC 25 -20.95 77.80 1 25 -20.94 77.81 TC 25 11 258
1966 SI MM 04:00:00 TS -21.29 76.88 1987 1945 P____PP__PO_P_ SH261966 -21.01 77.63 25 -1 -21.38 77.64 99 -20.96 77.62 999 -21.01 77.63 TC 25 -21.00 77.60 1 25 -21.01 77.63 TC 25 10 263
1966 SI MM 06:00:00 TS -21.32 76.53 reunion 1945 1935 O____OP__OP_O_ jtwc_sh SH261966 -21.10 77.30 25 -1 -21.50 77.20 99 9.90 -20.99 77.19 999 -21.10 77.30 TC 25 -21.04 77.27 1 26 -21.10 77.30 TC 25 10 267
1966 SI MM 07:00:00 TS -21.32 76.36 1935 1893 P____PO__PP_P_ SH261966 -21.11 77.14 26 -1 -21.56 76.99 99 -21.00 77.00 999 -21.11 77.14 TC 26 -21.05 77.12 1 27 -21.11 77.14 TC 26 10 272
1966 SI MM 09:00:00 TS -21.30 76.01 1893 1842 P____PP__PP_P_ SH261966 -21.08 76.84 30 -1 -21.68 76.59 99 -21.02 76.72 998 -21.08 76.84 TC 30 -21.05 76.83 1 29 -21.08 76.84 TC 30 10 274
1966 SI MM 12:00:00 TS -21.26 75.49 reunion 1842 1779 O____OP__OP_O_ jtwc_sh SH261966 -21.00 76.40 35 0 -21.80 76.00 2 9.90 -21.02 76.36 998 -21.00 76.40 TC 35 -21.02 76.41 1 31 -21.00 76.40 TC 35 10 274
1966 SI MM 15:00:00 TS -21.24 74.94 1779 1769 P____PP__PP_P_ SH261966 -20.98 75.93 35 0 -21.82 75.44 2 -21.00 75.96 998 -20.98 75.93 TC 35 -21.00 75.96 1 34 -20.98 75.93 TC 35 10 272
1966 SI MM 16:00:00 TS -21.23 74.74 1759 1717 P____PO__PO_P_ SH261966 -20.98 75.76 35 0 -21.82 75.26 2 -21.00 75.80 998 -20.98 75.76 TC 35 -21.00 75.80 2 35 -20.98 75.76 TC 35 11 271
1966 SI MM 18:00:00 TS -21.23 74.33 reunion 1717 1707 O____OP__OP_O_ jtwc_sh SH261966 -21.00 75.40 35 0 -21.80 74.90 99 9.90 -20.99 75.41 997 -21.00 75.40 TC 35 -21.03 75.41 2 33 -21.00 75.40 TC 35 12 269
1966 SI MM 19:00:00 TS -21.24 74.11 1696 1655 P____PO__PP_P_ SH261966 -21.02 75.20 34 0 -21.80 74.71 99 -21.00 75.20 997 -21.02 75.20 TC 34 -21.05 75.21 2 32 -21.02 75.20 TC 34 12 267
1966 SI MM 21:00:00 TS -21.26 73.66 1655 1634 P____PP__PP_P_ SH261966 -21.09 74.77 32 -1 -21.80 74.34 99 -21.06 74.80 996 -21.09 74.77 TC 32 -21.10 74.79 2 30 -21.09 74.77 TC 32 13 266
1966 SI MM 22:00:00 TS -21.28 73.44 1624 1583 P____PO__PP_P_ SH261966 -21.13 74.54 31 -1 -21.80 74.16 99 -21.10 74.60 996 -21.13 74.54 TC 31 -21.13 74.57 2 30 -21.13 74.54 TC 31 13 266
1966 SI MM 1966-03-06 00:00:00 TS -21.31 72.98 reunion 1583 1531 O____OP__OP_O_ jtwc_sh SH261966 -21.20 74.10 30 -1 -21.80 73.80 99 9.90 -21.17 74.18 996 -21.20 74.10 TC 30 -21.18 74.14 2 28 -21.20 74.10 TC 30 10 267
1966 SI MM 03:00:00 TS -21.33 72.53 1531 1531 P____PP__PP_P_ SH261966 -21.25 73.48 27 -1 -21.81 73.32 99 -21.27 73.53 996 -21.25 73.48 TC 27 -21.27 73.50 2 25 -21.25 73.48 TC 27 6 264
1966 SI MM 04:00:00 TS -21.34 72.58 1541 1531 P____PO__PO_P_ SH261966 -21.26 73.28 26 -1 -21.82 73.16 99 -21.30 73.30 996 -21.26 73.28 TC 26 -21.30 73.30 1 25 -21.26 73.28 TC 26 1 217
1966 SI MM 06:00:00 TS -21.38 72.48 reunion 1531 1531 O____OP__OP_O_ jtwc_sh SH261966 -21.30 72.90 25 -1 -21.80 72.80 99 9.90 -21.37 72.83 996 -21.30 72.90 TC 25 -21.34 72.94 1 25 -21.30 72.90 TC 25 2 128
1966 SI MM 07:00:00 TS -21.42 72.68 1552 1511 P____PO__PP_P_ SH261966 -21.33 72.72 25 -1 -21.77 72.58 99 -21.40 72.60 997 -21.33 72.72 TC 25 -21.36 72.77 1 25 -21.33 72.72 TC 25 3 243
1966 SI MM 09:00:00 TS -21.46 72.32 1511 1459 P____PP__PP_P_ SH261966 -21.39 72.39 25 -1 -21.70 72.11 99 -21.45 72.25 997 -21.39 72.39 TC 25 -21.40 72.44 1 25 -21.39 72.39 TC 25 10 263
1966 SI MM 12:00:00 TS -21.52 71.81 reunion 1459 1408 O____OP__OP_O_ jtwc_sh SH261966 -21.50 71.90 25 -1 -21.60 71.40 2 9.90 -21.51 71.83 997 -21.50 71.90 TC 25 -21.47 71.93 1 25 -21.50 71.90 TC 25 10 262
1966 SI MM 15:00:00 TS -21.59 71.29 1408 1388 P____PP__PP_P_ SH261966 -21.59 71.39 25 -1 -21.58 70.79 2 -21.57 71.39 997 -21.59 71.39 TC 25 -21.56 71.39 1 25 -21.59 71.39 TC 25 10 262
1966 SI MM 16:00:00 TS -21.61 71.10 1388 1347 P____PO__PO_P_ SH261966 -21.63 71.20 25 -1 -21.58 70.59 2 -21.60 71.20 997 -21.63 71.20 TC 25 -21.60 71.20 1 25 -21.63 71.20 TC 25 11 261
1966 SI MM 18:00:00 TS -21.68 70.69 reunion 1347 1327 O____OP__OP_O_ jtwc_sh SH261966 -21.70 70.80 25 -1 -21.60 70.20 99 9.90 -21.67 70.75 997 -21.70 70.80 TC 25 -21.68 70.75 1 23 -21.70 70.80 TC 25 12 261
1966 SI MM 19:00:00 TS -21.71 70.45 1327 1276 P____PO__PP_P_ SH261966 -21.74 70.57 24 -1 -21.61 69.99 99 -21.70 70.50 997 -21.74 70.57 TC 24 -21.73 70.51 1 22 -21.74 70.57 TC 24 14 261
1966 SI MM 21:00:00 TS -21.78 69.96 1276 1255 P____PP__PP_P_ SH261966 -21.83 70.06 22 -1 -21.63 69.58 99 -21.76 69.96 997 -21.83 70.06 TC 22 -21.83 70.02 1 20 -21.83 70.06 TC 22 14 261
1966 SI MM 22:00:00 TS -21.82 69.71 1245 1195 P____PO__PP_P_ SH261966 -21.88 69.81 21 -1 -21.65 69.38 99 -21.80 69.70 998 -21.88 69.81 TC 21 -21.88 69.78 1 20 -21.88 69.81 TC 21 14 257
1966 SI MM 1966-03-07 00:00:00 TS -21.93 69.23 reunion 1195 1176 O____OP__OP_O_ jtwc_sh SH261966 -22.00 69.30 20 -1 -21.70 69.00 99 9.90 -21.92 69.22 998 -22.00 69.30 TC 20 -22.01 69.29 1 18 -22.00 69.30 TC 20 14 255
1966 SI MM 01:00:00 TS -22.00 69.01 1176 1137 P____PO__PP_P_ SH261966 -22.07 69.06 19 -1 -21.72 68.82 99 -22.00 69.00 998 -22.07 69.06 TC 19 -22.07 69.06 1 17 -22.07 69.06 TC 19 13 250
1966 SI MM 03:00:00 TS -22.16 68.58 1138 1118 P____PP__PP_P_ SH261966 -22.23 68.61 17 -1 -21.78 68.48 99 -22.19 68.59 998 -22.23 68.61 TC 17 -22.22 68.61 1 15 -22.23 68.61 TC 17 13 247
1966 SI MM 04:00:00 TS -22.25 68.38 1118 1081 P____PO__PO_P_ SH261966 -22.32 68.39 16 -1 -21.81 68.32 99 -22.30 68.40 998 -22.32 68.39 TC 16 -22.30 68.40 1 15 -22.32 68.39 TC 16 12 243
1966 SI MM 06:00:00 TS -22.43 68.00 reunion 1081 1073 O____OP__OP_O_ jtwc_sh SH261966 -22.50 68.00 15 -1 -21.90 68.00 99 9.90 -22.57 67.99 998 -22.50 68.00 TC 15 -22.47 68.02 1 15 -22.50 68.00 TC 15 12 242
1966 SI MM 07:00:00 TS -22.51 67.83 1063 1038 P____PO__PP_P_ SH261966 -22.52 67.83 15 -1 -21.93 67.83 99 -22.70 67.80 999 -22.59 67.83 TC 15 -22.56 67.85 1 16 -22.59 67.83 TC 15 10 242
1966 SI MM 09:00:00 TS -22.67 67.51 1038 1003 P____PP__PP_P_ SH261966 -22.56 67.53 15 -1 -22.01 67.48 99 -22.90 67.50 999 -22.76 67.52 TC 15 -22.76 67.53 1 17 -22.76 67.52 TC 15 10 239
1966 SI MM 12:00:00 TS -22.93 67.09 reunion 1003 946 O____OP__OP_O_ jtwc_sh SH261966 -23.00 67.10 15 -1 -22.30 67.00 2 9.90 -23.14 67.14 999 -23.00 67.10 TC 15 -23.07 67.11 1 18 -23.00 67.10 TC 15 14 232
1966 SI MM 15:00:00 TS -23.54 66.32 946 939 P____PP___P___ SH261966 -24.42 66.32 -1 -22.90 66.50 2 -23.39 66.76 999 TC -23.39 66.72 1 19 TC 21 221
1966 SI MM 16:00:00 TS -23.99 66.08 948 943 P____PO___O___ SH261966 -24.97 66.12 -1 -23.16 66.36 2 -23.50 66.60 1000 TC -23.50 66.60 1 20 TC 24 189
1966 SI MM 18:00:00 TS -24.72 66.12 reunion 981 986 O____OP_______ jtwc_sh SH281966 -26.00 66.00 -1 -23.70 66.20 99 9.90 -23.76 66.21 1000 1 23 173
1966 SI MM 19:00:00 TS -25.13 66.23 1011 1011 P____PO_______ SH281966 -26.35 66.18 -1 -23.96 66.18 99 -23.90 66.00 1001 1 20 158
1966 SI MM 21:00:00 TS -25.66 66.53 1070 1079 P____PP_______ SH281966 -26.93 66.86 -1 -24.52 66.27 99 -24.17 65.60 1001 1 21 150
1966 SI MM 22:00:00 TS -26.04 66.81 1113 1113 P____PO_______ SH281966 -27.17 67.31 -1 -24.81 66.36 99 -24.30 65.40 1002 1 26 141
1966 SI MM 1966-03-08 00:00:00 TS -26.68 67.45 reunion 1205 1214 O____OP_______ jtwc_sh SH281966 -27.60 68.30 -1 -25.40 66.60 99 9.90 -24.57 65.00 1002 1 28 135
1966 SI MM 01:00:00 TS -27.01 67.89 1265 1265 P____PO_______ SH281966 -27.81 68.78 -1 -25.67 66.71 99 -24.70 64.80 1003 1 26 128
1966 SI MM 03:00:00 TS -27.47 68.58 1354 1354 P____P________ SH281966 -28.25 69.69 -1 -26.23 66.98 99 1 19 131
1966 SI MM 06:00:00 TS -28.05 69.25 reunion 1442 1372 O____O________ jtwc_sh SH281966 -28.90 71.00 -1 -27.20 67.50 99 9.90 10 203
1966 SI MM 09:00:00 NR -28.42 68.12 1372 1378 _____P________ SH281966 -1 -28.42 68.12 99 18 193
1966 SI MM 12:00:00 TS -29.80 68.80 reunion 1523 _____O________ -1 -29.80 68.80 6 9.90 30 157